sensor_id;sensor_type;location;lat;lon;timestamp;pressure;altitude;pressure_sealevel;temperature
68911;BMP180;55953;51.650;-0.522;2022-10-31T00:01:35;100768.40;;;12.10
68911;BMP180;55953;51.650;-0.522;2022-10-31T00:04:04;100772.80;;;12.10
68911;BMP180;55953;51.650;-0.522;2022-10-31T00:06:32;100770.00;;;12.10
68911;BMP180;55953;51.650;-0.522;2022-10-31T00:09:03;100775.80;;;12.10
68911;BMP180;55953;51.650;-0.522;2022-10-31T00:11:31;100771.80;;;12.10
68911;BMP180;55953;51.650;-0.522;2022-10-31T00:13:59;100777.00;;;12.10
68911;BMP180;55953;51.650;-0.522;2022-10-31T00:16:28;100778.20;;;12.10
68911;BMP180;55953;51.650;-0.522;2022-10-31T00:18:59;100776.00;;;12.10
68911;BMP180;55953;51.650;-0.522;2022-10-31T00:21:28;100770.00;;;12.00
68911;BMP180;55953;51.650;-0.522;2022-10-31T00:23:58;100769.80;;;12.00
68911;BMP180;55953;51.650;-0.522;2022-10-31T00:26:31;100770.60;;;12.00
68911;BMP180;55953;51.650;-0.522;2022-10-31T00:28:59;100772.80;;;12.00
68911;BMP180;55953;51.650;-0.522;2022-10-31T00:31:28;100771.60;;;12.10
68911;BMP180;55953;51.650;-0.522;2022-10-31T00:33:57;100766.20;;;12.08
68911;BMP180;55953;51.650;-0.522;2022-10-31T00:36:26;100780.20;;;12.08
68911;BMP180;55953;51.650;-0.522;2022-10-31T00:38:54;100773.80;;;12.10
68911;BMP180;55953;51.650;-0.522;2022-10-31T00:41:24;100772.20;;;12.00
68911;BMP180;55953;51.650;-0.522;2022-10-31T00:43:51;100768.80;;;12.00
68911;BMP180;55953;51.650;-0.522;2022-10-31T00:46:19;100766.80;;;12.00
68911;BMP180;55953;51.650;-0.522;2022-10-31T00:48:47;100765.60;;;12.00
68911;BMP180;55953;51.650;-0.522;2022-10-31T00:51:14;100763.60;;;12.00
68911;BMP180;55953;51.650;-0.522;2022-10-31T00:53:42;100766.00;;;12.00
68911;BMP180;55953;51.650;-0.522;2022-10-31T00:56:10;100775.80;;;12.00
68911;BMP180;55953;51.650;-0.522;2022-10-31T00:58:38;100774.00;;;12.00
68911;BMP180;55953;51.650;-0.522;2022-10-31T01:01:07;100776.40;;;12.00
68911;BMP180;55953;51.650;-0.522;2022-10-31T01:03:35;100775.00;;;12.10
68911;BMP180;55953;51.650;-0.522;2022-10-31T01:06:08;100777.00;;;12.10
68911;BMP180;55953;51.650;-0.522;2022-10-31T01:08:37;100773.80;;;12.10
68911;BMP180;55953;51.650;-0.522;2022-10-31T01:11:09;100771.80;;;12.20
68911;BMP180;55953;51.650;-0.522;2022-10-31T01:13:40;100777.60;;;12.18
68911;BMP180;55953;51.650;-0.522;2022-10-31T01:16:12;100776.60;;;12.10
68911;BMP180;55953;51.650;-0.522;2022-10-31T01:18:40;100773.40;;;12.10
68911;BMP180;55953;51.650;-0.522;2022-10-31T01:21:28;100770.80;;;12.10
68911;BMP180;55953;51.650;-0.522;2022-10-31T01:23:59;100773.20;;;12.18
68911;BMP180;55953;51.650;-0.522;2022-10-31T01:26:31;100774.80;;;12.20
68911;BMP180;55953;51.650;-0.522;2022-10-31T01:29:04;100773.00;;;12.22
68911;BMP180;55953;51.650;-0.522;2022-10-31T01:31:37;100769.40;;;12.20
68911;BMP180;55953;51.650;-0.522;2022-10-31T01:34:05;100768.40;;;12.20
68911;BMP180;55953;51.650;-0.522;2022-10-31T01:36:37;100769.20;;;12.10
68911;BMP180;55953;51.650;-0.522;2022-10-31T01:39:13;100770.00;;;12.10
68911;BMP180;55953;51.650;-0.522;2022-10-31T01:41:48;100765.60;;;12.10
68911;BMP180;55953;51.650;-0.522;2022-10-31T01:46:57;100765.40;;;12.20
68911;BMP180;55953;51.650;-0.522;2022-10-31T01:53:05;100763.80;;;12.30
68911;BMP180;55953;51.650;-0.522;2022-10-31T01:55:44;100760.00;;;12.30
68911;BMP180;55953;51.650;-0.522;2022-10-31T01:58:22;100757.00;;;12.30
68911;BMP180;55953;51.650;-0.522;2022-10-31T02:00:56;100757.40;;;12.30
68911;BMP180;55953;51.650;-0.522;2022-10-31T02:03:30;100755.40;;;12.36
68911;BMP180;55953;51.650;-0.522;2022-10-31T02:05:58;100755.20;;;12.40
68911;BMP180;55953;51.650;-0.522;2022-10-31T02:08:29;100759.40;;;12.50
68911;BMP180;55953;51.650;-0.522;2022-10-31T02:10:59;100757.60;;;12.50
68911;BMP180;55953;51.650;-0.522;2022-10-31T02:13:29;100752.20;;;12.50
68911;BMP180;55953;51.650;-0.522;2022-10-31T02:15:58;100752.60;;;12.50
68911;BMP180;55953;51.650;-0.522;2022-10-31T02:18:30;100751.80;;;12.50
68911;BMP180;55953;51.650;-0.522;2022-10-31T02:21:17;100755.00;;;12.60
68911;BMP180;55953;51.650;-0.522;2022-10-31T02:35:33;100744.60;;;12.90
68911;BMP180;55953;51.650;-0.522;2022-10-31T02:38:24;100750.40;;;12.80
68911;BMP180;55953;51.650;-0.522;2022-10-31T02:41:18;100748.60;;;12.80
68911;BMP180;55953;51.650;-0.522;2022-10-31T02:44:20;100741.80;;;12.80
68911;BMP180;55953;51.650;-0.522;2022-10-31T02:47:00;100738.40;;;12.74
68911;BMP180;55953;51.650;-0.522;2022-10-31T02:49:39;100739.60;;;12.80
68911;BMP180;55953;51.650;-0.522;2022-10-31T02:52:19;100734.40;;;12.80
68911;BMP180;55953;51.650;-0.522;2022-10-31T02:54:48;100730.80;;;12.70
68911;BMP180;55953;51.650;-0.522;2022-10-31T02:57:28;100735.00;;;12.66
68911;BMP180;55953;51.650;-0.522;2022-10-31T03:00:07;100729.20;;;12.60
68911;BMP180;55953;51.650;-0.522;2022-10-31T03:09:03;100723.40;;;12.60
68911;BMP180;55953;51.650;-0.522;2022-10-31T03:14:35;100720.40;;;12.60
68911;BMP180;55953;51.650;-0.522;2022-10-31T03:17:18;100726.20;;;12.60
68911;BMP180;55953;51.650;-0.522;2022-10-31T03:19:53;100725.60;;;12.54
68911;BMP180;55953;51.650;-0.522;2022-10-31T03:22:25;100729.00;;;12.50
68911;BMP180;55953;51.650;-0.522;2022-10-31T03:24:55;100727.40;;;12.50
68911;BMP180;55953;51.650;-0.522;2022-10-31T03:27:28;100724.60;;;12.42
68911;BMP180;55953;51.650;-0.522;2022-10-31T03:30:03;100727.40;;;12.40
68911;BMP180;55953;51.650;-0.522;2022-10-31T03:32:44;100725.20;;;12.40
68911;BMP180;55953;51.650;-0.522;2022-10-31T03:35:19;100720.60;;;12.40
68911;BMP180;55953;51.650;-0.522;2022-10-31T03:37:51;100723.60;;;12.40
68911;BMP180;55953;51.650;-0.522;2022-10-31T03:40:23;100717.80;;;12.40
68911;BMP180;55953;51.650;-0.522;2022-10-31T03:43:00;100714.40;;;12.40
68911;BMP180;55953;51.650;-0.522;2022-10-31T03:45:33;100711.80;;;12.40
68911;BMP180;55953;51.650;-0.522;2022-10-31T03:48:04;100714.00;;;12.40
68911;BMP180;55953;51.650;-0.522;2022-10-31T03:53:44;100718.60;;;12.44
68911;BMP180;55953;51.650;-0.522;2022-10-31T03:56:26;100718.80;;;12.50
68911;BMP180;55953;51.650;-0.522;2022-10-31T03:59:16;100714.40;;;12.60
68911;BMP180;55953;51.650;-0.522;2022-10-31T04:01:52;100711.80;;;12.60
68911;BMP180;55953;51.650;-0.522;2022-10-31T04:04:21;100712.00;;;12.70
68911;BMP180;55953;51.650;-0.522;2022-10-31T04:06:51;100713.20;;;12.60
68911;BMP180;55953;51.650;-0.522;2022-10-31T04:09:20;100715.20;;;12.62
68911;BMP180;55953;51.650;-0.522;2022-10-31T04:11:53;100718.20;;;12.70
68911;BMP180;55953;51.650;-0.522;2022-10-31T04:14:48;100707.20;;;12.70
68911;BMP180;55953;51.650;-0.522;2022-10-31T04:17:22;100712.20;;;12.62
68911;BMP180;55953;51.650;-0.522;2022-10-31T04:19:51;100704.60;;;12.68
68911;BMP180;55953;51.650;-0.522;2022-10-31T04:22:18;100702.00;;;12.70
68911;BMP180;55953;51.650;-0.522;2022-10-31T04:24:46;100695.20;;;12.80
68911;BMP180;55953;51.650;-0.522;2022-10-31T04:27:15;100691.40;;;12.80
68911;BMP180;55953;51.650;-0.522;2022-10-31T04:29:43;100690.80;;;12.80
68911;BMP180;55953;51.650;-0.522;2022-10-31T04:32:16;100687.40;;;12.80
68911;BMP180;55953;51.650;-0.522;2022-10-31T04:34:45;100682.00;;;12.80
68911;BMP180;55953;51.650;-0.522;2022-10-31T04:37:12;100678.80;;;12.80
68911;BMP180;55953;51.650;-0.522;2022-10-31T04:39:40;100689.20;;;12.80
68911;BMP180;55953;51.650;-0.522;2022-10-31T04:42:40;100690.20;;;13.00
68911;BMP180;55953;51.650;-0.522;2022-10-31T04:45:09;100684.00;;;13.00
68911;BMP180;55953;51.650;-0.522;2022-10-31T04:47:37;100677.40;;;13.02
68911;BMP180;55953;51.650;-0.522;2022-10-31T04:50:06;100677.20;;;13.06
68911;BMP180;55953;51.650;-0.522;2022-10-31T04:52:40;100679.60;;;13.00
68911;BMP180;55953;51.650;-0.522;2022-10-31T04:55:10;100679.40;;;13.08
68911;BMP180;55953;51.650;-0.522;2022-10-31T04:57:58;100681.40;;;13.10
68911;BMP180;55953;51.650;-0.522;2022-10-31T05:00:27;100685.60;;;13.12
68911;BMP180;55953;51.650;-0.522;2022-10-31T05:02:57;100684.40;;;13.20
68911;BMP180;55953;51.650;-0.522;2022-10-31T05:05:30;100684.20;;;13.20
68911;BMP180;55953;51.650;-0.522;2022-10-31T05:08:00;100682.20;;;13.20
68911;BMP180;55953;51.650;-0.522;2022-10-31T05:10:30;100679.20;;;13.20
68911;BMP180;55953;51.650;-0.522;2022-10-31T05:13:01;100679.60;;;13.20
68911;BMP180;55953;51.650;-0.522;2022-10-31T05:15:59;100684.40;;;13.20
68911;BMP180;55953;51.650;-0.522;2022-10-31T05:18:42;100680.40;;;13.18
68911;BMP180;55953;51.650;-0.522;2022-10-31T05:21:16;100676.60;;;13.16
68911;BMP180;55953;51.650;-0.522;2022-10-31T05:23:49;100678.20;;;13.20
68911;BMP180;55953;51.650;-0.522;2022-10-31T05:26:17;100680.60;;;13.20
68911;BMP180;55953;51.650;-0.522;2022-10-31T05:28:44;100677.60;;;13.20
68911;BMP180;55953;51.650;-0.522;2022-10-31T05:31:12;100672.80;;;13.20
68911;BMP180;55953;51.650;-0.522;2022-10-31T05:33:41;100667.60;;;13.20
68911;BMP180;55953;51.650;-0.522;2022-10-31T05:36:28;100665.60;;;13.22
68911;BMP180;55953;51.650;-0.522;2022-10-31T05:39:18;100661.00;;;13.26
68911;BMP180;55953;51.650;-0.522;2022-10-31T05:41:48;100661.60;;;13.24
68911;BMP180;55953;51.650;-0.522;2022-10-31T05:44:20;100664.00;;;13.20
68911;BMP180;55953;51.650;-0.522;2022-10-31T05:46:56;100657.40;;;13.18
68911;BMP180;55953;51.650;-0.522;2022-10-31T05:49:43;100651.20;;;13.12
68911;BMP180;55953;51.650;-0.522;2022-10-31T05:52:29;100650.80;;;13.20
68911;BMP180;55953;51.650;-0.522;2022-10-31T05:55:03;100648.40;;;13.10
68911;BMP180;55953;51.650;-0.522;2022-10-31T05:57:32;100647.40;;;13.10
68911;BMP180;55953;51.650;-0.522;2022-10-31T06:00:01;100651.60;;;13.10
68911;BMP180;55953;51.650;-0.522;2022-10-31T06:02:33;100648.00;;;13.10
68911;BMP180;55953;51.650;-0.522;2022-10-31T06:05:20;100648.80;;;13.10
68911;BMP180;55953;51.650;-0.522;2022-10-31T06:07:48;100644.20;;;13.10
68911;BMP180;55953;51.650;-0.522;2022-10-31T06:10:16;100645.60;;;13.10
68911;BMP180;55953;51.650;-0.522;2022-10-31T06:12:44;100640.00;;;13.10
68911;BMP180;55953;51.650;-0.522;2022-10-31T06:15:34;100637.40;;;13.00
68911;BMP180;55953;51.650;-0.522;2022-10-31T06:18:04;100638.60;;;13.00
68911;BMP180;55953;51.650;-0.522;2022-10-31T06:20:36;100636.60;;;13.00
68911;BMP180;55953;51.650;-0.522;2022-10-31T06:23:04;100634.40;;;12.94
68911;BMP180;55953;51.650;-0.522;2022-10-31T06:25:33;100633.40;;;13.00
68911;BMP180;55953;51.650;-0.522;2022-10-31T06:28:04;100631.80;;;12.90
68911;BMP180;55953;51.650;-0.522;2022-10-31T06:31:04;100635.20;;;12.90
68911;BMP180;55953;51.650;-0.522;2022-10-31T06:33:34;100632.60;;;12.80
68911;BMP180;55953;51.650;-0.522;2022-10-31T06:36:02;100635.60;;;12.80
68911;BMP180;55953;51.650;-0.522;2022-10-31T06:38:30;100634.20;;;12.80
68911;BMP180;55953;51.650;-0.522;2022-10-31T06:41:03;100627.40;;;12.80
68911;BMP180;55953;51.650;-0.522;2022-10-31T06:43:51;100620.80;;;12.76
68911;BMP180;55953;51.650;-0.522;2022-10-31T06:46:34;100624.20;;;12.78
68911;BMP180;55953;51.650;-0.522;2022-10-31T06:49:22;100627.20;;;12.80
68911;BMP180;55953;51.650;-0.522;2022-10-31T06:51:53;100626.20;;;12.80
68911;BMP180;55953;51.650;-0.522;2022-10-31T06:54:21;100624.40;;;12.80
68911;BMP180;55953;51.650;-0.522;2022-10-31T06:56:49;100626.80;;;12.80
68911;BMP180;55953;51.650;-0.522;2022-10-31T06:59:17;100620.00;;;12.80
68911;BMP180;55953;51.650;-0.522;2022-10-31T07:02:17;100622.60;;;12.80
68911;BMP180;55953;51.650;-0.522;2022-10-31T07:04:45;100623.20;;;12.90
68911;BMP180;55953;51.650;-0.522;2022-10-31T07:07:14;100615.40;;;12.90
68911;BMP180;55953;51.650;-0.522;2022-10-31T07:09:41;100610.40;;;12.90
68911;BMP180;55953;51.650;-0.522;2022-10-31T07:12:10;100616.00;;;13.00
68911;BMP180;55953;51.650;-0.522;2022-10-31T07:14:40;100613.40;;;13.00
68911;BMP180;55953;51.650;-0.522;2022-10-31T07:17:08;100615.20;;;13.08
68911;BMP180;55953;51.650;-0.522;2022-10-31T07:19:39;100615.80;;;13.10
68911;BMP180;55953;51.650;-0.522;2022-10-31T07:22:07;100614.80;;;13.04
68911;BMP180;55953;51.650;-0.522;2022-10-31T07:24:36;100620.40;;;13.10
68911;BMP180;55953;51.650;-0.522;2022-10-31T07:27:42;100621.00;;;13.20
68911;BMP180;55953;51.650;-0.522;2022-10-31T07:30:13;100622.60;;;13.20
68911;BMP180;55953;51.650;-0.522;2022-10-31T07:32:44;100621.40;;;13.36
68911;BMP180;55953;51.650;-0.522;2022-10-31T07:35:21;100619.20;;;13.30
68911;BMP180;55953;51.650;-0.522;2022-10-31T07:37:56;100615.40;;;13.40
68911;BMP180;55953;51.650;-0.522;2022-10-31T07:40:25;100612.40;;;13.42
68911;BMP180;55953;51.650;-0.522;2022-10-31T07:42:53;100606.20;;;13.50
68911;BMP180;55953;51.650;-0.522;2022-10-31T07:45:39;100616.60;;;13.50
68911;BMP180;55953;51.650;-0.522;2022-10-31T07:48:26;100606.60;;;13.50
68911;BMP180;55953;51.650;-0.522;2022-10-31T07:51:12;100607.00;;;13.60
68911;BMP180;55953;51.650;-0.522;2022-10-31T07:53:59;100608.20;;;13.60
68911;BMP180;55953;51.650;-0.522;2022-10-31T07:56:29;100609.00;;;13.70
68911;BMP180;55953;51.650;-0.522;2022-10-31T07:58:57;100604.60;;;13.70
68911;BMP180;55953;51.650;-0.522;2022-10-31T08:01:25;100597.40;;;13.86
68911;BMP180;55953;51.650;-0.522;2022-10-31T08:04:08;100602.00;;;13.90
68911;BMP180;55953;51.650;-0.522;2022-10-31T08:06:54;100607.20;;;13.90
68911;BMP180;55953;51.650;-0.522;2022-10-31T08:09:29;100612.20;;;14.00
68911;BMP180;55953;51.650;-0.522;2022-10-31T08:11:59;100603.00;;;14.00
68911;BMP180;55953;51.650;-0.522;2022-10-31T08:14:27;100602.00;;;14.00
68911;BMP180;55953;51.650;-0.522;2022-10-31T08:16:56;100601.40;;;13.96
68911;BMP180;55953;51.650;-0.522;2022-10-31T08:19:25;100601.40;;;14.00
68911;BMP180;55953;51.650;-0.522;2022-10-31T08:21:53;100601.20;;;14.00
68911;BMP180;55953;51.650;-0.522;2022-10-31T08:24:26;100597.60;;;14.04
68911;BMP180;55953;51.650;-0.522;2022-10-31T08:26:54;100601.00;;;14.10
68911;BMP180;55953;51.650;-0.522;2022-10-31T08:29:22;100603.60;;;14.20
68911;BMP180;55953;51.650;-0.522;2022-10-31T08:31:51;100601.20;;;14.20
68911;BMP180;55953;51.650;-0.522;2022-10-31T08:34:37;100601.00;;;14.20
68911;BMP180;55953;51.650;-0.522;2022-10-31T08:37:23;100594.80;;;14.20
68911;BMP180;55953;51.650;-0.522;2022-10-31T08:39:54;100590.20;;;14.12
68911;BMP180;55953;51.650;-0.522;2022-10-31T08:42:22;100594.60;;;14.20
68911;BMP180;55953;51.650;-0.522;2022-10-31T08:44:50;100594.40;;;14.20
68911;BMP180;55953;51.650;-0.522;2022-10-31T08:47:20;100598.00;;;14.20
68911;BMP180;55953;51.650;-0.522;2022-10-31T08:49:48;100597.60;;;14.30
68911;BMP180;55953;51.650;-0.522;2022-10-31T08:52:16;100586.60;;;14.40
68911;BMP180;55953;51.650;-0.522;2022-10-31T08:54:44;100586.60;;;14.40
68911;BMP180;55953;51.650;-0.522;2022-10-31T08:57:30;100589.20;;;14.54
68911;BMP180;55953;51.650;-0.522;2022-10-31T08:59:59;100584.60;;;14.64
68911;BMP180;55953;51.650;-0.522;2022-10-31T09:02:41;100587.00;;;14.70
68911;BMP180;55953;51.650;-0.522;2022-10-31T09:05:09;100575.60;;;14.78
68911;BMP180;55953;51.650;-0.522;2022-10-31T09:07:37;100572.00;;;14.80
68911;BMP180;55953;51.650;-0.522;2022-10-31T09:10:05;100569.80;;;14.90
68911;BMP180;55953;51.650;-0.522;2022-10-31T09:12:35;100566.20;;;15.00
68911;BMP180;55953;51.650;-0.522;2022-10-31T09:15:21;100557.80;;;15.10
68911;BMP180;55953;51.650;-0.522;2022-10-31T09:17:57;100560.40;;;15.10
68911;BMP180;55953;51.650;-0.522;2022-10-31T09:20:51;100550.40;;;15.30
68911;BMP180;55953;51.650;-0.522;2022-10-31T09:23:22;100543.80;;;15.40
68911;BMP180;55953;51.650;-0.522;2022-10-31T09:25:52;100539.20;;;15.46
68911;BMP180;55953;51.650;-0.522;2022-10-31T09:28:42;100537.20;;;15.50
68911;BMP180;55953;51.650;-0.522;2022-10-31T09:31:12;100535.60;;;15.56
68911;BMP180;55953;51.650;-0.522;2022-10-31T09:33:49;100531.20;;;15.60
68911;BMP180;55953;51.650;-0.522;2022-10-31T09:36:43;100525.00;;;15.70
68911;BMP180;55953;51.650;-0.522;2022-10-31T09:39:20;100526.40;;;15.80
68911;BMP180;55953;51.650;-0.522;2022-10-31T09:50:41;100510.60;;;16.30
68911;BMP180;55953;51.650;-0.522;2022-10-31T09:53:44;100509.00;;;16.40
68911;BMP180;55953;51.650;-0.522;2022-10-31T09:56:22;100497.80;;;16.48
68911;BMP180;55953;51.650;-0.522;2022-10-31T09:59:00;100505.00;;;16.60
68911;BMP180;55953;51.650;-0.522;2022-10-31T10:04:53;100502.20;;;16.70
68911;BMP180;55953;51.650;-0.522;2022-10-31T10:10:40;100490.80;;;16.70
68911;BMP180;55953;51.650;-0.522;2022-10-31T10:25:44;100482.00;;;16.80
68911;BMP180;55953;51.650;-0.522;2022-10-31T10:28:20;100481.00;;;16.90
68911;BMP180;55953;51.650;-0.522;2022-10-31T10:31:03;100482.00;;;17.00
68911;BMP180;55953;51.650;-0.522;2022-10-31T10:33:49;100482.80;;;17.00
68911;BMP180;55953;51.650;-0.522;2022-10-31T10:36:48;100480.00;;;17.10
68911;BMP180;55953;51.650;-0.522;2022-10-31T10:39:23;100478.20;;;17.10
68911;BMP180;55953;51.650;-0.522;2022-10-31T10:41:52;100475.00;;;17.00
68911;BMP180;55953;51.650;-0.522;2022-10-31T10:44:44;100471.40;;;17.00
68911;BMP180;55953;51.650;-0.522;2022-10-31T10:47:41;100465.00;;;17.10
68911;BMP180;55953;51.650;-0.522;2022-10-31T10:50:22;100461.20;;;17.10
68911;BMP180;55953;51.650;-0.522;2022-10-31T10:55:47;100449.60;;;17.20
68911;BMP180;55953;51.650;-0.522;2022-10-31T10:58:16;100446.20;;;17.20
68911;BMP180;55953;51.650;-0.522;2022-10-31T11:00:46;100446.40;;;17.20
68911;BMP180;55953;51.650;-0.522;2022-10-31T11:03:17;100444.60;;;17.30
68911;BMP180;55953;51.650;-0.522;2022-10-31T11:05:58;100438.20;;;17.30
68911;BMP180;55953;51.650;-0.522;2022-10-31T11:08:33;100438.20;;;17.32
68911;BMP180;55953;51.650;-0.522;2022-10-31T11:11:29;100433.00;;;17.36
68911;BMP180;55953;51.650;-0.522;2022-10-31T11:14:13;100425.80;;;17.40
68911;BMP180;55953;51.650;-0.522;2022-10-31T11:16:47;100422.00;;;17.32
68911;BMP180;55953;51.650;-0.522;2022-10-31T11:19:21;100418.00;;;17.40
68911;BMP180;55953;51.650;-0.522;2022-10-31T11:21:49;100420.60;;;17.30
68911;BMP180;55953;51.650;-0.522;2022-10-31T11:24:23;100414.60;;;17.30
68911;BMP180;55953;51.650;-0.522;2022-10-31T11:29:40;100412.20;;;17.30
68911;BMP180;55953;51.650;-0.522;2022-10-31T11:32:26;100412.80;;;17.20
68911;BMP180;55953;51.650;-0.522;2022-10-31T11:34:58;100410.00;;;17.20
68911;BMP180;55953;51.650;-0.522;2022-10-31T11:37:32;100405.20;;;17.20
68911;BMP180;55953;51.650;-0.522;2022-10-31T11:40:06;100397.80;;;17.20
68911;BMP180;55953;51.650;-0.522;2022-10-31T11:42:44;100398.40;;;17.20
68911;BMP180;55953;51.650;-0.522;2022-10-31T11:45:27;100398.60;;;17.18
68911;BMP180;55953;51.650;-0.522;2022-10-31T11:47:56;100387.80;;;17.12
68911;BMP180;55953;51.650;-0.522;2022-10-31T11:50:51;100385.20;;;17.20
68911;BMP180;55953;51.650;-0.522;2022-10-31T11:53:28;100378.60;;;17.20
68911;BMP180;55953;51.650;-0.522;2022-10-31T11:56:16;100373.40;;;17.20
68911;BMP180;55953;51.650;-0.522;2022-10-31T11:58:56;100367.20;;;17.20
68911;BMP180;55953;51.650;-0.522;2022-10-31T12:01:28;100366.00;;;17.30
68911;BMP180;55953;51.650;-0.522;2022-10-31T12:06:40;100355.20;;;17.50
68911;BMP180;55953;51.650;-0.522;2022-10-31T12:23:20;100314.20;;;17.70
68911;BMP180;55953;51.650;-0.522;2022-10-31T12:26:17;100305.20;;;17.60
68911;BMP180;55953;51.650;-0.522;2022-10-31T12:29:05;100293.40;;;17.58
68911;BMP180;55953;51.650;-0.522;2022-10-31T12:37:38;100283.00;;;17.60
68911;BMP180;55953;51.650;-0.522;2022-10-31T12:41:33;100282.20;;;17.66
68911;BMP180;55953;51.650;-0.522;2022-10-31T12:46:52;100274.00;;;17.70
68911;BMP180;55953;51.650;-0.522;2022-10-31T12:53:23;100262.60;;;17.60
68911;BMP180;55953;51.650;-0.522;2022-10-31T12:58:51;100234.60;;;17.40
68911;BMP180;55953;51.650;-0.522;2022-10-31T13:01:53;100242.80;;;17.30
68911;BMP180;55953;51.650;-0.522;2022-10-31T13:04:35;100235.80;;;17.30
68911;BMP180;55953;51.650;-0.522;2022-10-31T13:07:37;100229.20;;;17.40
68911;BMP180;55953;51.650;-0.522;2022-10-31T13:12:49;100217.60;;;17.48
68911;BMP180;55953;51.650;-0.522;2022-10-31T13:15:24;100210.60;;;17.48
68911;BMP180;55953;51.650;-0.522;2022-10-31T13:18:03;100195.80;;;17.50
68911;BMP180;55953;51.650;-0.522;2022-10-31T13:20:41;100180.20;;;17.60
68911;BMP180;55953;51.650;-0.522;2022-10-31T13:23:33;100174.20;;;17.60
68911;BMP180;55953;51.650;-0.522;2022-10-31T13:31:30;100135.20;;;17.68
68911;BMP180;55953;51.650;-0.522;2022-10-31T13:34:06;100134.40;;;17.70
68911;BMP180;55953;51.650;-0.522;2022-10-31T13:36:50;100132.20;;;17.60
68911;BMP180;55953;51.650;-0.522;2022-10-31T13:39:33;100122.20;;;17.50
68911;BMP180;55953;51.650;-0.522;2022-10-31T13:42:52;100112.00;;;17.50
68911;BMP180;55953;51.650;-0.522;2022-10-31T13:45:24;100119.60;;;17.40
68911;BMP180;55953;51.650;-0.522;2022-10-31T13:50:32;100106.00;;;17.50
68911;BMP180;55953;51.650;-0.522;2022-10-31T13:53:21;100098.20;;;17.60
68911;BMP180;55953;51.650;-0.522;2022-10-31T13:56:25;100094.40;;;17.60
68911;BMP180;55953;51.650;-0.522;2022-10-31T14:01:35;100087.20;;;17.64
68911;BMP180;55953;51.650;-0.522;2022-10-31T14:04:21;100080.20;;;17.70
68911;BMP180;55953;51.650;-0.522;2022-10-31T14:07:06;100065.40;;;17.80
68911;BMP180;55953;51.650;-0.522;2022-10-31T14:10:03;100057.20;;;17.90
68911;BMP180;55953;51.650;-0.522;2022-10-31T14:12:41;100049.40;;;18.00
68911;BMP180;55953;51.650;-0.522;2022-10-31T14:15:23;100039.60;;;18.00
68911;BMP180;55953;51.650;-0.522;2022-10-31T14:17:54;100032.00;;;18.00
68911;BMP180;55953;51.650;-0.522;2022-10-31T14:20:43;100029.00;;;17.90
68911;BMP180;55953;51.650;-0.522;2022-10-31T14:29:00;100016.60;;;17.90
68911;BMP180;55953;51.650;-0.522;2022-10-31T14:31:36;100012.20;;;17.90
68911;BMP180;55953;51.650;-0.522;2022-10-31T14:51:08;99979.20;;;17.50
68911;BMP180;55953;51.650;-0.522;2022-10-31T14:53:54;99967.60;;;17.40
68911;BMP180;55953;51.650;-0.522;2022-10-31T14:56:28;99963.40;;;17.30
68911;BMP180;55953;51.650;-0.522;2022-10-31T14:59:02;99959.40;;;17.30
68911;BMP180;55953;51.650;-0.522;2022-10-31T15:01:34;99953.40;;;17.20
68911;BMP180;55953;51.650;-0.522;2022-10-31T15:04:18;99948.40;;;17.10
68911;BMP180;55953;51.650;-0.522;2022-10-31T15:07:13;99940.40;;;17.00
68911;BMP180;55953;51.650;-0.522;2022-10-31T15:10:06;99943.80;;;17.00
68911;BMP180;55953;51.650;-0.522;2022-10-31T15:12:35;99935.80;;;16.90
68911;BMP180;55953;51.650;-0.522;2022-10-31T15:15:16;99926.00;;;16.90
68911;BMP180;55953;51.650;-0.522;2022-10-31T15:17:58;99914.60;;;16.90
68911;BMP180;55953;51.650;-0.522;2022-10-31T15:20:41;99905.40;;;16.72
68911;BMP180;55953;51.650;-0.522;2022-10-31T15:23:21;99898.40;;;16.62
68911;BMP180;55953;51.650;-0.522;2022-10-31T15:25:50;99893.20;;;16.60
68911;BMP180;55953;51.650;-0.522;2022-10-31T15:28:26;99891.60;;;16.60
68911;BMP180;55953;51.650;-0.522;2022-10-31T15:30:58;99883.20;;;16.60
68911;BMP180;55953;51.650;-0.522;2022-10-31T15:33:48;99882.80;;;16.60
68911;BMP180;55953;51.650;-0.522;2022-10-31T15:36:22;99874.20;;;16.58
68911;BMP180;55953;51.650;-0.522;2022-10-31T15:38:57;99861.60;;;16.50
68911;BMP180;55953;51.650;-0.522;2022-10-31T15:44:30;99849.00;;;16.40
68911;BMP180;55953;51.650;-0.522;2022-10-31T15:47:02;99842.00;;;16.40
68911;BMP180;55953;51.650;-0.522;2022-10-31T15:49:40;99840.40;;;16.30
68911;BMP180;55953;51.650;-0.522;2022-10-31T15:52:21;99837.60;;;16.30
68911;BMP180;55953;51.650;-0.522;2022-10-31T15:54:54;99840.20;;;16.28
68911;BMP180;55953;51.650;-0.522;2022-10-31T15:57:24;99829.40;;;16.28
68911;BMP180;55953;51.650;-0.522;2022-10-31T15:59:54;99821.20;;;16.20
68911;BMP180;55953;51.650;-0.522;2022-10-31T16:02:25;99812.80;;;16.18
68911;BMP180;55953;51.650;-0.522;2022-10-31T16:05:00;99806.20;;;16.20
68911;BMP180;55953;51.650;-0.522;2022-10-31T16:07:29;99801.00;;;16.10
68911;BMP180;55953;51.650;-0.522;2022-10-31T16:10:03;99790.00;;;16.10
68911;BMP180;55953;51.650;-0.522;2022-10-31T16:12:45;99778.40;;;16.10
68911;BMP180;55953;51.650;-0.522;2022-10-31T16:15:16;99776.60;;;16.06
68911;BMP180;55953;51.650;-0.522;2022-10-31T16:17:48;99773.80;;;16.00
68911;BMP180;55953;51.650;-0.522;2022-10-31T16:20:26;99762.40;;;16.00
68911;BMP180;55953;51.650;-0.522;2022-10-31T16:22:57;99761.60;;;16.00
68911;BMP180;55953;51.650;-0.522;2022-10-31T16:25:36;99750.20;;;16.00
68911;BMP180;55953;51.650;-0.522;2022-10-31T16:28:14;99743.80;;;15.90
68911;BMP180;55953;51.650;-0.522;2022-10-31T16:30:48;99741.60;;;15.90
68911;BMP180;55953;51.650;-0.522;2022-10-31T16:33:23;99732.40;;;15.90
68911;BMP180;55953;51.650;-0.522;2022-10-31T16:35:53;99726.80;;;15.90
68911;BMP180;55953;51.650;-0.522;2022-10-31T16:38:36;99719.20;;;16.00
68911;BMP180;55953;51.650;-0.522;2022-10-31T16:41:04;99713.80;;;15.94
68911;BMP180;55953;51.650;-0.522;2022-10-31T16:43:32;99711.40;;;15.90
68911;BMP180;55953;51.650;-0.522;2022-10-31T16:46:00;99700.40;;;15.80
68911;BMP180;55953;51.650;-0.522;2022-10-31T16:48:28;99695.40;;;15.80
68911;BMP180;55953;51.650;-0.522;2022-10-31T16:50:55;99687.80;;;15.70